createdAt,value
2019-04-23T00:01:47.127Z,86.90
2019-04-23T00:04:21.409Z,86.80
2019-04-23T00:07:10.709Z,88.20
2019-04-23T00:09:32.901Z,88.00
2019-04-23T00:11:54.218Z,90.40
2019-04-23T00:16:57.770Z,90.50
2019-04-23T00:19:27.586Z,90.30
2019-04-23T00:21:59.992Z,90.70
2019-04-23T00:27:29.126Z,91.50
2019-04-23T00:29:56.181Z,90.80
2019-04-23T00:32:28.745Z,90.70
2019-04-23T00:39:56.712Z,92.90
2019-04-23T00:44:58.249Z,93.40
2019-04-23T00:47:46.595Z,94.10
2019-04-23T00:50:16.090Z,95.40
2019-04-23T00:52:32.146Z,95.80
2019-04-23T00:57:35.888Z,97.00
2019-04-23T01:00:10.698Z,97.50
2019-04-23T01:02:43.883Z,97.80
2019-04-23T01:05:11.747Z,98.60
2019-04-23T01:07:40.294Z,99.10
2019-04-23T01:10:18.382Z,98.80
2019-04-23T01:12:46.444Z,99.90
2019-04-23T01:15:24.203Z,99.80
2019-04-23T01:17:57.767Z,99.90
2019-04-23T01:22:36.074Z,99.90
2019-04-23T01:25:24.763Z,99.90
2019-04-23T01:28:15.948Z,99.90
2019-04-23T01:30:52.761Z,99.90
2019-04-23T01:33:22.851Z,99.90
2019-04-23T01:35:52.971Z,99.90
2019-04-23T01:38:21.777Z,99.90
2019-04-23T01:40:47.427Z,99.90
2019-04-23T01:43:38.196Z,99.90
2019-04-23T01:45:49.125Z,99.90
2019-04-23T01:48:17.834Z,99.90
2019-04-23T01:50:54.585Z,99.90
2019-04-23T01:53:27.302Z,99.90
2019-04-23T02:01:00.738Z,99.90
2019-04-23T02:03:29.434Z,99.90
2019-04-23T02:06:00.007Z,99.90
2019-04-23T02:08:28.008Z,99.90
2019-04-23T02:16:00.056Z,99.90
2019-04-23T02:18:52.608Z,99.90
2019-04-23T02:21:07.580Z,99.90
2019-04-23T02:23:57.344Z,99.90
2019-04-23T02:26:23.301Z,99.90
2019-04-23T02:28:54.637Z,99.90
2019-04-23T02:36:29.228Z,99.90
2019-04-23T02:41:35.229Z,99.90
2019-04-23T02:44:04.978Z,99.90
2019-04-23T02:46:22.741Z,99.90
2019-04-23T02:49:12.567Z,99.90
2019-04-23T02:51:37.180Z,99.90
2019-04-23T02:59:11.001Z,99.90
2019-04-23T03:01:59.569Z,99.90
2019-04-23T03:04:17.519Z,99.90
2019-04-23T03:09:12.879Z,99.90
2019-04-23T03:11:40.968Z,99.90
2019-04-23T03:14:15.435Z,99.90
2019-04-23T03:19:35.977Z,99.90
2019-04-23T03:22:01.497Z,99.90
2019-04-23T03:24:59.828Z,99.90
2019-04-23T03:29:49.790Z,99.90
2019-04-23T03:33:08.570Z,99.90
2019-04-23T03:40:02.116Z,99.90
2019-04-23T03:42:20.000Z,99.90
2019-04-23T03:47:24.783Z,99.90
2019-04-23T03:49:56.165Z,99.90
2019-04-23T03:52:27.673Z,99.90
2019-04-23T03:54:50.240Z,99.90
2019-04-23T03:57:24.699Z,99.90
2019-04-23T04:00:13.107Z,99.90
2019-04-23T04:04:49.809Z,99.90
2019-04-23T04:09:53.882Z,99.90
2019-04-23T04:17:26.777Z,99.90
2019-04-23T04:20:13.559Z,99.90
2019-04-23T04:30:10.564Z,99.90
2019-04-23T04:32:36.508Z,99.90
2019-04-23T04:42:44.669Z,99.90
2019-04-23T04:45:20.311Z,99.90
2019-04-23T04:47:44.057Z,99.90
2019-04-23T04:50:25.961Z,99.90
2019-04-23T04:52:42.039Z,99.90
2019-04-23T04:55:13.957Z,99.90
2019-04-23T04:57:52.325Z,99.90
2019-04-23T05:03:01.173Z,99.90
2019-04-23T05:10:25.185Z,99.90
2019-04-23T05:12:52.188Z,99.90
2019-04-23T05:15:16.883Z,99.90
2019-04-23T05:20:46.393Z,99.90
2019-04-23T05:23:18.366Z,99.90
2019-04-23T05:25:38.132Z,99.90
2019-04-23T05:30:50.118Z,99.90
2019-04-23T05:33:12.931Z,99.90
2019-04-23T05:40:53.723Z,99.90
2019-04-23T05:43:11.846Z,99.90
2019-04-23T05:45:53.144Z,99.90
2019-04-23T05:48:18.959Z,99.90
2019-04-23T05:53:18.414Z,99.90
2019-04-23T05:58:26.738Z,99.90
2019-04-23T06:01:10.868Z,99.90
2019-04-23T06:03:24.886Z,99.90
2019-04-23T06:06:11.288Z,99.90
2019-04-23T06:08:33.652Z,99.90
2019-04-23T06:11:05.652Z,99.90
2019-04-23T06:13:35.927Z,99.90
2019-04-23T06:15:58.176Z,99.90
2019-04-23T06:18:38.900Z,99.90
2019-04-23T06:21:02.791Z,99.90
2019-04-23T06:23:41.757Z,99.90
2019-04-23T06:26:22.414Z,99.90
2019-04-23T06:28:33.605Z,99.90
2019-04-23T06:31:06.331Z,99.90
2019-04-23T06:38:46.986Z,99.90
2019-04-23T06:41:15.645Z,99.90
2019-04-23T06:43:54.681Z,99.90
2019-04-23T06:46:20.836Z,99.90
2019-04-23T06:48:47.003Z,96.10
2019-04-23T06:51:21.694Z,92.10
2019-04-23T06:53:43.498Z,90.30
2019-04-23T06:56:28.416Z,88.90
2019-04-23T06:58:48.867Z,86.40
2019-04-23T07:01:19.135Z,81.80
2019-04-23T07:06:38.440Z,82.70
2019-04-23T07:09:12.113Z,80.10
2019-04-23T07:16:28.270Z,71.50
2019-04-23T07:19:04.899Z,71.10
2019-04-23T07:21:42.156Z,74.60
2019-04-23T07:29:01.495Z,81.50
2019-04-23T07:31:35.093Z,83.60
2019-04-23T07:34:05.475Z,84.40
2019-04-23T07:36:38.247Z,87.60
2019-04-23T07:39:25.062Z,91.10
2019-04-23T07:42:20.955Z,94.30
2019-04-23T07:45:10.451Z,94.30
2019-04-23T07:48:08.073Z,94.30
2019-04-23T07:53:17.070Z,94.10
2019-04-23T07:55:41.127Z,91.40
2019-04-23T07:58:14.395Z,86.80
2019-04-23T08:03:17.472Z,83.60
2019-04-23T08:05:39.588Z,88.40
2019-04-23T08:08:07.247Z,91.80
2019-04-23T08:10:47.147Z,95.60
2019-04-23T08:13:16.302Z,99.90
2019-04-23T08:18:23.325Z,99.90
2019-04-23T08:20:49.371Z,99.90
2019-04-23T08:23:34.510Z,99.90
2019-04-23T08:26:52.063Z,99.90
2019-04-23T08:29:12.898Z,99.90
2019-04-23T08:31:38.081Z,99.90
2019-04-23T08:34:16.555Z,99.90
2019-04-23T08:39:05.523Z,99.90
2019-04-23T08:41:45.728Z,99.90
2019-04-23T08:44:21.623Z,99.90
2019-04-23T08:49:29.681Z,99.90
2019-04-23T08:52:07.168Z,99.90
2019-04-23T08:54:42.893Z,99.90
2019-04-23T08:57:02.633Z,99.90
2019-04-23T09:02:18.921Z,99.90
2019-04-23T09:04:40.051Z,99.90
2019-04-23T09:07:11.407Z,99.90
2019-04-23T09:12:08.810Z,99.90
2019-04-23T09:14:42.117Z,97.80
2019-04-23T09:17:13.268Z,99.90
2019-04-23T09:19:56.381Z,99.90
2019-04-23T09:22:22.347Z,99.90
2019-04-23T09:24:47.111Z,99.90
2019-04-23T09:29:58.905Z,99.90
2019-04-23T09:32:28.412Z,99.90
2019-04-23T09:35:31.304Z,99.90
2019-04-23T09:38:27.677Z,99.90
2019-04-23T09:41:37.254Z,99.90
2019-04-23T09:44:03.068Z,99.90
2019-04-23T09:46:49.522Z,99.50
2019-04-23T09:51:45.064Z,95.90
2019-04-23T09:54:23.632Z,95.60
2019-04-23T09:56:50.992Z,92.80
2019-04-23T09:59:26.718Z,92.10
2019-04-23T10:01:40.889Z,85.60
2019-04-23T10:04:04.131Z,76.10
2019-04-23T10:06:28.309Z,75.70
2019-04-23T10:08:58.164Z,75.90
2019-04-23T10:11:26.184Z,71.50
2019-04-23T10:13:56.649Z,77.90
2019-04-23T10:16:30.108Z,74.20
2019-04-23T10:18:57.374Z,75.40
2019-04-23T10:21:26.748Z,77.30
2019-04-23T10:23:57.116Z,80.70
2019-04-23T10:26:28.087Z,76.80
2019-04-23T10:29:05.405Z,80.30
2019-04-23T10:31:35.606Z,71.50
2019-04-23T10:34:06.384Z,70.50
2019-04-23T10:36:37.910Z,72.70
2019-04-23T10:39:15.588Z,74.90
2019-04-23T10:41:42.603Z,78.00
2019-04-23T10:44:23.335Z,80.00
2019-04-23T10:47:43.500Z,77.30
2019-04-23T10:50:35.841Z,77.30
2019-04-23T10:53:10.224Z,77.60
2019-04-23T10:55:34.979Z,80.40
2019-04-23T10:58:04.191Z,78.00
2019-04-23T11:03:16.383Z,78.60
2019-04-23T11:05:47.497Z,78.50
2019-04-23T11:08:08.700Z,79.90
2019-04-23T11:10:34.386Z,80.20
2019-04-23T11:13:31.416Z,81.30
2019-04-23T11:16:27.592Z,79.30
2019-04-23T11:18:38.457Z,83.50
2019-04-23T11:21:05.243Z,83.00
2019-04-23T11:26:24.708Z,77.70
2019-04-23T11:28:45.021Z,81.00
2019-04-23T11:31:32.048Z,88.10
2019-04-23T11:41:34.608Z,91.10
2019-04-23T11:43:53.709Z,92.10
2019-04-23T11:46:45.674Z,90.50
2019-04-23T11:49:20.333Z,88.00
2019-04-23T11:54:01.802Z,90.80
2019-04-23T11:59:07.871Z,92.60
2019-04-23T12:02:00.795Z,95.30
2019-04-23T12:05:01.019Z,93.60
2019-04-23T12:07:33.923Z,93.20
2019-04-23T12:10:20.020Z,96.00
2019-04-23T12:12:42.926Z,93.80
2019-04-23T12:15:23.807Z,93.60
2019-04-23T12:17:47.118Z,95.90
2019-04-23T12:22:57.491Z,97.40
2019-04-23T12:27:59.586Z,92.90
2019-04-23T12:30:25.176Z,92.80
2019-04-23T12:37:55.185Z,95.70
2019-04-23T12:40:24.919Z,99.00
2019-04-23T12:43:02.413Z,97.90
2019-04-23T12:50:44.906Z,99.40
2019-04-23T12:55:36.233Z,99.30
2019-04-23T13:00:37.061Z,99.40
2019-04-23T13:05:34.457Z,98.20
2019-04-23T13:08:30.413Z,98.30
2019-04-23T13:13:25.695Z,99.80
2019-04-23T13:18:17.602Z,98.90
2019-04-23T13:20:46.780Z,97.70
2019-04-23T13:25:57.026Z,99.90
2019-04-23T13:28:35.351Z,96.40
2019-04-23T13:31:07.926Z,97.40
2019-04-23T13:33:38.949Z,98.20
2019-04-23T13:38:36.392Z,99.90
2019-04-23T13:41:08.428Z,99.90
2019-04-23T13:48:30.062Z,99.90
2019-04-23T13:51:19.900Z,98.90
2019-04-23T13:56:15.197Z,98.40
2019-04-23T13:58:48.829Z,99.60
2019-04-23T14:01:25.961Z,99.90
2019-04-23T14:03:45.227Z,99.90
2019-04-23T14:13:55.220Z,99.90
2019-04-23T14:24:08.277Z,99.90
2019-04-23T14:26:34.873Z,99.90
2019-04-23T14:28:55.398Z,99.90
2019-04-23T14:31:24.019Z,99.90
2019-04-23T14:39:18.315Z,99.90
2019-04-23T14:41:27.270Z,99.90
2019-04-23T14:44:19.027Z,99.90
2019-04-23T14:46:50.204Z,99.90
2019-04-23T14:49:11.216Z,99.90
2019-04-23T14:52:00.156Z,99.90
2019-04-23T14:54:23.558Z,99.90
2019-04-23T14:59:29.148Z,99.90
2019-04-23T15:02:22.893Z,99.90
2019-04-23T15:04:56.086Z,99.90
2019-04-23T15:10:20.510Z,99.90
2019-04-23T15:15:25.153Z,99.90
2019-04-23T15:18:04.331Z,99.90
2019-04-23T15:26:41.137Z,99.90
2019-04-23T15:28:07.552Z,99.90
2019-04-23T15:30:59.245Z,99.90
2019-04-23T15:33:45.119Z,99.90
2019-04-23T15:41:29.520Z,99.90
2019-04-23T15:46:47.132Z,99.90
2019-04-23T15:52:07.366Z,99.90
2019-04-23T15:54:55.295Z,99.90
2019-04-23T15:57:53.999Z,99.90
2019-04-23T16:00:13.295Z,99.90
2019-04-23T16:02:31.044Z,99.90
2019-04-23T16:05:09.405Z,99.90
2019-04-23T16:10:44.902Z,99.90
2019-04-23T16:13:40.358Z,99.90
2019-04-23T16:19:02.127Z,99.90
2019-04-23T16:24:13.605Z,99.90
2019-04-23T16:27:01.035Z,99.90
2019-04-23T16:32:26.363Z,99.90
2019-04-23T16:35:06.750Z,99.90
2019-04-23T16:37:49.229Z,99.90
2019-04-23T16:40:57.323Z,99.90
2019-04-23T16:43:13.213Z,99.90
2019-04-23T16:48:53.238Z,99.90
2019-04-23T16:56:30.624Z,99.90
2019-04-23T16:59:06.989Z,99.90
2019-04-23T17:04:19.687Z,99.90
2019-04-23T17:06:58.203Z,99.90
2019-04-23T17:12:16.270Z,99.90
2019-04-23T17:15:10.903Z,99.90
2019-04-23T17:17:57.503Z,99.90
2019-04-23T17:20:40.940Z,99.90
2019-04-23T17:28:20.141Z,99.90
2019-04-23T17:31:27.994Z,99.90
2019-04-23T17:33:54.634Z,99.90
2019-04-23T17:47:14.175Z,99.90
2019-04-23T17:49:42.214Z,99.90
2019-04-23T17:52:33.554Z,99.90
2019-04-23T17:55:01.746Z,99.90
2019-04-23T17:57:44.368Z,99.90
2019-04-23T18:00:36.012Z,99.90
2019-04-23T18:03:16.080Z,99.90
2019-04-23T18:08:43.746Z,99.90
2019-04-23T18:11:31.289Z,99.90
2019-04-23T18:16:40.894Z,99.90
2019-04-23T18:19:16.586Z,99.90
2019-04-23T18:22:24.655Z,99.90
2019-04-23T18:25:37.576Z,99.90
2019-04-23T18:28:08.935Z,99.90
2019-04-23T18:34:03.566Z,99.90
2019-04-23T18:36:29.708Z,99.90
2019-04-23T18:39:12.390Z,99.90
2019-04-23T18:46:49.141Z,99.90
2019-04-23T18:49:42.547Z,99.90
2019-04-23T18:57:19.124Z,99.90
2019-04-23T19:00:24.869Z,99.90
2019-04-23T19:03:29.455Z,99.90
2019-04-23T19:06:29.802Z,99.90
2019-04-23T19:09:32.242Z,99.90
2019-04-23T19:12:28.210Z,99.90
2019-04-23T19:15:17.032Z,99.90
2019-04-23T19:20:41.764Z,99.90
2019-04-23T19:28:14.308Z,99.90
2019-04-23T19:33:47.865Z,99.90
2019-04-23T19:36:13.790Z,99.90
2019-04-23T19:38:54.274Z,99.90
2019-04-23T19:41:25.498Z,99.90
2019-04-23T19:44:10.384Z,99.90
2019-04-23T19:49:26.929Z,99.90
2019-04-23T19:52:08.672Z,99.90
2019-04-23T19:54:58.856Z,99.90
2019-04-23T19:57:19.872Z,99.90
2019-04-23T20:00:04.336Z,99.90
2019-04-23T20:05:24.198Z,99.90
2019-04-23T20:13:19.695Z,99.90
2019-04-23T20:16:05.639Z,99.90
2019-04-23T20:24:04.860Z,99.90
2019-04-23T20:26:41.386Z,99.90
2019-04-23T20:29:50.989Z,99.90
2019-04-23T20:35:07.004Z,99.90
2019-04-23T20:40:40.111Z,99.90
2019-04-23T20:43:14.693Z,99.90
2019-04-23T20:45:48.497Z,99.90
2019-04-23T20:48:37.202Z,99.90
2019-04-23T20:51:04.275Z,99.90
2019-04-23T20:53:40.103Z,99.90
2019-04-23T20:56:30.133Z,99.90
2019-04-23T21:04:28.161Z,99.90
2019-04-23T21:07:03.222Z,99.90
2019-04-23T21:10:00.266Z,99.90
2019-04-23T21:12:51.159Z,99.90
2019-04-23T21:15:28.320Z,99.90
2019-04-23T21:18:08.309Z,99.90
2019-04-23T21:20:40.096Z,99.90
2019-04-23T21:31:30.643Z,99.90
2019-04-23T21:34:10.230Z,99.90
2019-04-23T21:37:14.260Z,99.90
2019-04-23T21:43:02.824Z,99.90
2019-04-23T21:45:50.089Z,99.90
2019-04-23T21:48:28.637Z,99.90
2019-04-23T21:53:38.574Z,99.90
2019-04-23T21:56:16.746Z,99.90
2019-04-23T21:58:57.618Z,99.90
2019-04-23T22:04:39.828Z,99.90
2019-04-23T22:09:36.047Z,99.90
2019-04-23T22:14:38.150Z,99.90
2019-04-23T22:17:15.056Z,99.90
2019-04-23T22:20:05.976Z,99.90
2019-04-23T22:22:51.160Z,99.90
2019-04-23T22:25:27.745Z,99.90
2019-04-23T22:28:13.851Z,99.90
2019-04-23T22:30:54.704Z,99.90
2019-04-23T22:33:18.102Z,99.90
2019-04-23T22:36:01.676Z,99.90
2019-04-23T22:38:25.856Z,99.90
2019-04-23T22:41:10.568Z,99.90
2019-04-23T22:52:32.243Z,99.90
2019-04-23T22:55:02.197Z,99.90
2019-04-23T22:57:58.725Z,99.90
2019-04-23T23:00:16.676Z,99.90
2019-04-23T23:03:11.729Z,99.90
2019-04-23T23:08:41.003Z,99.90
2019-04-23T23:11:13.992Z,99.90
2019-04-23T23:19:28.272Z,99.90
2019-04-23T23:22:02.106Z,99.90
2019-04-23T23:24:41.157Z,99.90
2019-04-23T23:27:21.427Z,99.90
2019-04-23T23:30:05.082Z,99.90
2019-04-23T23:35:14.944Z,99.90
2019-04-23T23:37:42.113Z,99.90
2019-04-23T23:40:30.303Z,99.90
2019-04-23T23:48:06.642Z,99.90
2019-04-23T23:50:51.525Z,99.90
2019-04-23T23:53:24.925Z,99.90
